Time;durP1;ratioP1;P1;durP2;ratioP2;P2;SDS_P1;SDS_P2;PMS_P1;PMS_P2;Temp;Humidity;BMP_temperature;BMP_pressure;BME280_temperature;BME280_humidity;BME280_pressure;Samples;Min_cycle;Max_cycle;Signal;HPM_P1;HPM_P2
2023/06/09 00:00:23;;;;;;;3.03;2.72;;;17.40;99.90;;;;;;5058151;28;20214;-73
2023/06/09 00:02:50;;;;;;;2.35;2.25;;;17.40;99.90;;;;;;5044934;28;20212;-74
2023/06/09 00:05:18;;;;;;;3.00;2.80;;;17.30;99.90;;;;;;5061937;28;20217;-73
2023/06/09 00:07:47;;;;;;;7.13;2.90;;;17.30;99.90;;;;;;5063533;28;20214;-72
2023/06/09 00:10:17;;;;;;;2.97;2.78;;;17.30;99.90;;;;;;5042671;28;20195;-72
2023/06/09 00:12:44;;;;;;;3.22;2.90;;;17.30;99.90;;;;;;5054797;28;20838;-71
2023/06/09 00:15:11;;;;;;;2.72;2.53;;;17.30;99.90;;;;;;5061451;28;20313;-71
2023/06/09 00:17:40;;;;;;;2.80;2.60;;;17.30;99.90;;;;;;5062171;28;20198;-71
2023/06/09 00:20:09;;;;;;;2.72;2.53;;;17.30;99.90;;;;;;5059217;28;20293;-72
2023/06/09 00:22:42;;;;;;;2.45;2.30;;;17.30;99.90;;;;;;5059717;28;20198;-72
2023/06/09 00:25:11;;;;;;;3.17;2.97;;;17.20;99.90;;;;;;5058117;28;20226;-71
2023/06/09 00:27:39;;;;;;;3.30;3.10;;;17.10;99.90;;;;;;5041581;28;20213;-70
2023/06/09 00:30:08;;;;;;;3.05;2.85;;;17.00;99.90;;;;;;5062567;28;20837;-71
2023/06/09 00:32:35;;;;;;;2.60;2.40;;;17.00;99.90;;;;;;5059057;28;20202;-71
2023/06/09 00:35:02;;;;;;;3.25;2.47;;;16.90;99.90;;;;;;5057087;28;20253;-71
2023/06/09 00:37:30;;;;;;;3.35;2.45;;;16.90;99.90;;;;;;5062790;28;20730;-70
2023/06/09 00:39:57;;;;;;;2.85;2.65;;;16.90;99.90;;;;;;5042582;28;20199;-72
2023/06/09 00:42:24;;;;;;;2.83;2.60;;;16.90;99.90;;;;;;5060470;28;20820;-71
2023/06/09 00:44:53;;;;;;;2.63;2.42;;;16.90;99.90;;;;;;5062521;28;20798;-73
2023/06/09 00:47:20;;;;;;;2.95;2.75;;;16.90;99.90;;;;;;5057404;28;20308;-72
2023/06/09 00:49:47;;;;;;;2.85;2.65;;;16.90;99.90;;;;;;5059643;28;20202;-72
2023/06/09 00:52:15;;;;;;;2.65;2.45;;;16.80;99.90;;;;;;5061097;28;20286;-73
2023/06/09 00:54:42;;;;;;;2.60;2.40;;;16.80;99.90;;;;;;5064417;28;21030;-72
2023/06/09 00:57:10;;;;;;;2.88;2.67;;;16.80;99.90;;;;;;5065896;28;20498;-73
2023/06/09 00:59:37;;;;;;;3.00;2.80;;;16.70;99.90;;;;;;5061877;28;20194;-72
2023/06/09 01:02:07;;;;;;;3.00;2.80;;;16.70;99.90;;;;;;5064406;28;20305;-73
2023/06/09 01:04:36;;;;;;;2.67;2.47;;;16.70;99.90;;;;;;5044783;28;20230;-73
2023/06/09 01:07:16;;;;;;;2.85;2.65;;;16.60;99.90;;;;;;5046250;28;20206;-73
2023/06/09 01:09:48;;;;;;;3.10;2.75;;;16.70;99.90;;;;;;5040343;28;20206;-72
2023/06/09 01:12:26;;;;;;;2.80;2.60;;;16.70;99.90;;;;;;5062337;28;20723;-72
2023/06/09 01:14:59;;;;;;;2.75;2.55;;;16.70;99.90;;;;;;5063940;28;20279;-72
2023/06/09 01:17:32;;;;;;;2.75;2.55;;;16.70;99.90;;;;;;5062413;28;20281;-72
2023/06/09 01:20:05;;;;;;;2.92;2.67;;;16.70;99.90;;;;;;5049350;28;21935;-71
2023/06/09 01:22:42;;;;;;;3.45;3.10;;;16.70;99.90;;;;;;5063923;28;20195;-71
2023/06/09 01:25:31;;;;;;;2.58;2.38;;;16.70;99.90;;;;;;5045556;28;20883;-72
2023/06/09 01:28:00;;;;;;;3.38;2.88;;;16.70;99.90;;;;;;5061465;28;20225;-71
2023/06/09 01:30:30;;;;;;;2.85;2.65;;;16.70;99.90;;;;;;5065509;28;20236;-72
2023/06/09 01:32:59;;;;;;;3.13;2.90;;;16.70;99.90;;;;;;5065036;28;20227;-72
2023/06/09 01:35:27;;;;;;;2.88;2.67;;;16.60;99.90;;;;;;5041864;28;20306;-72
2023/06/09 01:37:55;;;;;;;2.80;2.60;;;16.60;99.90;;;;;;5058232;28;20206;-72
2023/06/09 01:40:23;;;;;;;3.20;3.00;;;16.60;99.90;;;;;;5060246;28;20258;-72
2023/06/09 01:42:51;;;;;;;2.88;2.67;;;16.70;99.90;;;;;;5043779;28;20683;-72
2023/06/09 01:45:18;;;;;;;2.97;2.78;;;16.60;99.90;;;;;;5066338;28;20309;-72
2023/06/09 01:47:45;;;;;;;3.28;3.03;;;16.70;99.90;;;;;;5063185;28;20654;-72
2023/06/09 01:50:19;;;;;;;2.80;2.60;;;16.70;99.90;;;;;;5060527;28;20671;-72
2023/06/09 01:52:52;;;;;;;2.70;2.50;;;16.70;99.90;;;;;;5064435;28;20230;-71
2023/06/09 01:55:25;;;;;;;3.40;3.10;;;16.70;99.90;;;;;;5063531;28;20310;-72
2023/06/09 01:57:56;;;;;;;3.00;2.80;;;16.70;99.90;;;;;;5062186;28;20228;-72
2023/06/09 02:00:27;;;;;;;2.97;2.78;;;16.70;99.90;;;;;;5058804;28;20285;-72
2023/06/09 02:02:56;;;;;;;2.60;2.40;;;16.60;99.90;;;;;;5062219;28;20199;-72
2023/06/09 02:05:25;;;;;;;2.58;2.38;;;16.60;99.90;;;;;;5060961;28;20314;-72
2023/06/09 02:07:53;;;;;;;2.72;2.53;;;16.60;99.90;;;;;;5045677;28;20221;-72
2023/06/09 02:10:23;;;;;;;3.20;2.60;;;16.60;99.90;;;;;;5030398;28;20740;-72
2023/06/09 02:12:50;;;;;;;2.50;2.30;;;16.50;99.90;;;;;;5061589;28;20206;-72
2023/06/09 02:15:18;;;;;;;2.83;2.63;;;16.50;99.90;;;;;;5063862;28;20779;-72
2023/06/09 02:17:46;;;;;;;2.38;2.17;;;16.50;99.90;;;;;;5060980;28;20207;-72
2023/06/09 02:20:13;;;;;;;2.60;2.40;;;16.50;99.90;;;;;;5062718;28;20226;-72
2023/06/09 02:22:40;;;;;;;2.83;2.58;;;16.50;99.90;;;;;;5061597;28;20206;-72
2023/06/09 02:25:09;;;;;;;2.65;2.45;;;16.50;99.90;;;;;;5060698;28;20711;-72
2023/06/09 02:27:39;;;;;;;2.78;2.58;;;16.50;99.90;;;;;;5056431;28;20211;-72
2023/06/09 02:30:08;;;;;;;2.90;2.70;;;16.50;99.90;;;;;;5057075;28;20293;-72
2023/06/09 02:32:36;;;;;;;3.45;2.95;;;16.40;99.90;;;;;;5061618;28;20238;-72
2023/06/09 02:35:03;;;;;;;3.53;3.30;;;16.40;99.90;;;;;;5062415;28;20306;-72
2023/06/09 02:37:31;;;;;;;2.90;2.70;;;16.30;99.90;;;;;;5059411;28;20198;-72
2023/06/09 02:39:58;;;;;;;3.28;3.08;;;16.30;99.90;;;;;;5056970;28;22091;-73
2023/06/09 02:42:25;;;;;;;3.03;2.83;;;16.30;99.90;;;;;;5042253;28;20202;-72
2023/06/09 02:44:54;;;;;;;3.47;2.90;;;16.20;99.90;;;;;;5060714;28;20222;-72
2023/06/09 02:47:21;;;;;;;2.80;2.60;;;16.20;99.90;;;;;;5059133;28;20207;-72
2023/06/09 02:49:48;;;;;;;3.28;3.03;;;16.20;99.90;;;;;;5062997;28;20454;-72
2023/06/09 02:52:15;;;;;;;2.80;2.60;;;16.20;99.90;;;;;;5046469;28;20202;-72
2023/06/09 02:54:43;;;;;;;3.22;3.03;;;16.20;99.90;;;;;;5062842;28;20250;-72
2023/06/09 02:57:10;;;;;;;3.53;3.22;;;16.20;99.90;;;;;;5057855;28;20550;-72
2023/06/09 02:59:39;;;;;;;3.13;2.92;;;16.20;99.90;;;;;;5059734;28;20221;-73
2023/06/09 03:02:08;;;;;;;3.10;2.90;;;16.20;99.90;;;;;;5057519;28;20210;-72
2023/06/09 03:04:35;;;;;;;3.60;3.30;;;16.20;99.90;;;;;;5059120;28;20315;-72
2023/06/09 03:07:03;;;;;;;3.15;2.95;;;16.20;99.90;;;;;;5061108;28;20198;-72
2023/06/09 03:09:31;;;;;;;2.78;2.58;;;16.20;99.90;;;;;;5043428;28;20219;-72
2023/06/09 03:11:58;;;;;;;2.90;2.70;;;16.10;99.90;;;;;;5060370;28;20322;-72
2023/06/09 03:14:25;;;;;;;3.50;3.00;;;16.10;99.90;;;;;;5060556;28;20919;-72
2023/06/09 03:16:53;;;;;;;2.90;2.70;;;16.10;99.90;;;;;;5061282;28;20259;-72
2023/06/09 03:19:22;;;;;;;3.25;2.97;;;16.10;99.90;;;;;;5061137;28;20248;-72
2023/06/09 03:21:49;;;;;;;3.00;2.80;;;16.10;99.90;;;;;;5059660;28;20727;-72
2023/06/09 03:24:17;;;;;;;3.40;3.10;;;16.10;99.90;;;;;;5062252;28;20273;-72
2023/06/09 03:26:44;;;;;;;2.92;2.72;;;16.00;99.90;;;;;;5059965;28;20206;-71
2023/06/09 03:29:11;;;;;;;3.20;3.00;;;16.00;99.90;;;;;;5059859;28;20309;-72
2023/06/09 03:31:38;;;;;;;3.60;3.30;;;16.00;99.90;;;;;;5062061;28;20935;-71
2023/06/09 03:34:05;;;;;;;3.30;3.00;;;16.00;99.90;;;;;;5061291;28;20661;-72
2023/06/09 03:36:35;;;;;;;3.35;3.10;;;16.00;99.90;;;;;;5044577;28;20210;-72
2023/06/09 03:39:02;;;;;;;3.55;3.20;;;16.00;99.90;;;;;;5059732;28;20202;-70
2023/06/09 03:41:29;;;;;;;3.35;3.05;;;16.00;99.90;;;;;;5042879;28;20759;-73
2023/06/09 03:43:56;;;;;;;3.13;2.92;;;16.00;99.90;;;;;;5056763;28;20258;-72
2023/06/09 03:46:23;;;;;;;3.08;2.88;;;16.00;99.90;;;;;;5062362;28;20206;-72
2023/06/09 03:48:51;;;;;;;3.15;2.95;;;16.00;99.90;;;;;;5060750;28;20315;-72
2023/06/09 03:51:19;;;;;;;3.15;2.95;;;16.00;99.90;;;;;;5055996;28;20207;-71
2023/06/09 03:53:48;;;;;;;3.33;3.10;;;16.00;99.90;;;;;;5060960;28;21026;-72
2023/06/09 03:56:15;;;;;;;2.72;2.53;;;15.90;99.90;;;;;;5043671;28;20292;-71
2023/06/09 03:58:42;;;;;;;3.20;2.90;;;15.90;99.90;;;;;;5060499;28;20258;-72
2023/06/09 04:01:10;;;;;;;3.35;3.05;;;15.90;99.90;;;;;;5046235;28;20322;-72
2023/06/09 04:03:38;;;;;;;2.58;2.38;;;15.90;99.90;;;;;;5056563;28;20265;-71
2023/06/09 04:06:05;;;;;;;3.60;3.33;;;15.90;99.90;;;;;;5060779;28;20260;-71
2023/06/09 04:08:33;;;;;;;2.97;2.70;;;16.00;99.90;;;;;;5059525;28;20249;-72
2023/06/09 04:11:01;;;;;;;3.13;2.92;;;16.10;99.90;;;;;;5063484;28;20208;-72
2023/06/09 04:13:28;;;;;;;3.38;3.10;;;16.30;99.90;;;;;;5059829;28;20289;-72
2023/06/09 04:15:55;;;;;;;3.72;3.42;;;16.40;99.90;;;;;;5045588;28;20226;-72
2023/06/09 04:18:23;;;;;;;3.25;2.95;;;16.40;99.90;;;;;;5057036;28;20202;-72
2023/06/09 04:20:50;;;;;;;3.15;2.95;;;16.50;99.90;;;;;;5056378;28;20205;-72
2023/06/09 04:23:17;;;;;;;3.35;3.03;;;16.50;99.90;;;;;;5060266;28;20199;-72
2023/06/09 04:25:45;;;;;;;3.00;2.80;;;16.50;99.90;;;;;;5060089;28;20256;-72
2023/06/09 04:28:14;;;;;;;2.85;2.65;;;16.60;99.90;;;;;;5043136;28;20206;-72
2023/06/09 04:30:41;;;;;;;3.67;3.38;;;16.70;99.90;;;;;;5058961;28;20277;-72
2023/06/09 04:33:09;;;;;;;3.05;2.85;;;16.70;99.90;;;;;;5060759;28;20277;-73
2023/06/09 04:35:36;;;;;;;4.95;3.40;;;16.80;99.90;;;;;;5059236;28;20262;-73
2023/06/09 04:38:03;;;;;;;3.03;2.83;;;16.80;99.90;;;;;;5058523;28;20233;-73
2023/06/09 04:40:31;;;;;;;3.60;3.30;;;16.70;99.90;;;;;;5060704;28;20194;-72
2023/06/09 04:43:01;;;;;;;9.38;3.90;;;16.80;99.90;;;;;;5059977;28;20368;-72
2023/06/09 04:45:33;;;;;;;3.95;3.50;;;16.90;99.90;;;;;;5041628;28;20226;-72
2023/06/09 04:48:00;;;;;;;3.78;3.47;;;16.90;99.90;;;;;;5041413;28;20205;-72
2023/06/09 04:50:29;;;;;;;4.30;3.90;;;17.00;99.90;;;;;;5058195;28;20210;-72
2023/06/09 04:52:57;;;;;;;3.58;3.30;;;17.10;99.90;;;;;;5045554;28;20199;-73
2023/06/09 04:55:26;;;;;;;3.75;3.45;;;17.10;99.90;;;;;;5061305;28;20331;-72
2023/06/09 04:57:55;;;;;;;3.60;3.40;;;17.20;99.90;;;;;;5057528;28;20630;-72
2023/06/09 05:00:22;;;;;;;3.80;3.50;;;17.30;99.90;;;;;;5026697;28;20198;-73
2023/06/09 05:02:53;;;;;;;4.47;4.03;;;17.30;99.90;;;;;;5045755;28;20907;-72
2023/06/09 05:05:20;;;;;;;3.95;3.65;;;17.40;99.90;;;;;;5058079;28;20218;-72
2023/06/09 05:07:47;;;;;;;4.70;3.92;;;17.40;99.90;;;;;;5058363;28;20229;-72
2023/06/09 05:10:15;;;;;;;3.72;3.42;;;17.40;99.90;;;;;;5059752;28;20301;-72
2023/06/09 05:12:42;;;;;;;4.30;3.90;;;17.20;99.90;;;;;;5060486;28;20295;-72
2023/06/09 05:15:10;;;;;;;4.32;3.97;;;17.00;99.90;;;;;;5041809;28;20217;-72
2023/06/09 05:17:38;;;;;;;4.78;3.85;;;17.10;99.90;;;;;;5060624;28;20296;-72
2023/06/09 05:20:09;;;;;;;3.90;3.60;;;17.20;99.90;;;;;;5028770;28;20265;-72
2023/06/09 05:22:37;;;;;;;4.28;3.80;;;17.50;99.90;;;;;;5058548;28;20206;-72
2023/06/09 05:25:05;;;;;;;3.92;3.63;;;17.70;99.90;;;;;;5059872;28;20320;-72
2023/06/09 05:27:32;;;;;;;4.32;3.92;;;17.90;99.90;;;;;;5059609;28;20195;-72
2023/06/09 05:29:59;;;;;;;4.10;3.70;;;18.00;99.90;;;;;;5054597;28;20651;-73
2023/06/09 05:32:26;;;;;;;4.55;3.88;;;18.00;99.90;;;;;;5058821;28;20287;-74
2023/06/09 05:34:53;;;;;;;4.22;3.83;;;18.10;99.90;;;;;;5057185;28;20795;-73
2023/06/09 05:37:22;;;;;;;4.28;3.92;;;18.10;99.90;;;;;;5057909;28;20640;-73
2023/06/09 05:39:49;;;;;;;4.35;3.95;;;18.10;99.90;;;;;;5060151;28;20297;-73
2023/06/09 05:42:16;;;;;;;4.30;3.90;;;18.00;99.90;;;;;;5047836;28;20286;-72
2023/06/09 05:44:43;;;;;;;3.90;3.60;;;18.00;99.90;;;;;;5063072;28;20305;-73
2023/06/09 05:47:10;;;;;;;4.32;3.90;;;18.00;99.90;;;;;;5071528;28;20202;-71
2023/06/09 05:49:38;;;;;;;5.22;4.53;;;18.00;99.90;;;;;;5080160;28;20217;-72
2023/06/09 05:52:05;;;;;;;4.22;3.85;;;18.10;99.90;;;;;;5064943;28;20230;-72
2023/06/09 05:54:34;;;;;;;4.05;3.70;;;18.10;99.90;;;;;;5080415;28;20416;-73
2023/06/09 05:57:03;;;;;;;6.63;4.00;;;18.30;99.90;;;;;;5062855;28;20289;-73
2023/06/09 05:59:32;;;;;;;4.40;3.97;;;18.40;99.90;;;;;;5045649;28;20206;-72
2023/06/09 06:02:00;;;;;;;4.85;4.45;;;18.40;99.90;;;;;;5065429;28;20198;-73
2023/06/09 06:04:28;;;;;;;4.75;4.30;;;18.40;99.90;;;;;;5060319;28;20236;-73
2023/06/09 06:06:55;;;;;;;4.43;4.03;;;18.40;99.90;;;;;;5046361;28;20202;-73
2023/06/09 06:09:22;;;;;;;6.90;4.72;;;18.40;99.90;;;;;;5045159;28;20815;-73
2023/06/09 06:11:51;;;;;;;4.50;4.10;;;18.30;99.90;;;;;;5061899;28;20206;-73
2023/06/09 06:14:18;;;;;;;5.13;4.72;;;18.30;99.90;;;;;;5062057;28;20256;-73
2023/06/09 06:16:45;;;;;;;4.88;4.35;;;18.20;99.90;;;;;;5056956;28;20284;-72
2023/06/09 06:19:12;;;;;;;4.82;4.43;;;18.20;99.90;;;;;;5043034;28;20236;-73
2023/06/09 06:21:42;;;;;;;5.03;4.53;;;18.30;99.90;;;;;;5062300;28;20313;-73
2023/06/09 06:24:09;;;;;;;4.95;4.55;;;18.50;99.90;;;;;;5061042;28;20250;-73
2023/06/09 06:26:36;;;;;;;5.47;5.00;;;18.60;99.90;;;;;;5059293;28;20304;-73
2023/06/09 06:29:05;;;;;;;8.48;4.55;;;18.70;99.90;;;;;;5045613;28;20579;-73
2023/06/09 06:31:32;;;;;;;5.40;4.50;;;18.70;99.90;;;;;;5058222;28;20241;-72
2023/06/09 06:33:59;;;;;;;4.97;4.57;;;18.70;99.90;;;;;;5060485;28;20923;-72
2023/06/09 06:36:26;;;;;;;4.68;4.28;;;18.90;99.90;;;;;;5046210;28;20665;-72
2023/06/09 06:38:54;;;;;;;4.72;4.32;;;18.90;99.90;;;;;;5057595;28;20285;-73
2023/06/09 06:41:21;;;;;;;5.03;4.50;;;18.90;99.90;;;;;;5059958;28;20285;-73
2023/06/09 06:43:49;;;;;;;4.85;4.20;;;18.90;99.90;;;;;;5058857;28;20726;-73
2023/06/09 06:46:18;;;;;;;4.95;4.35;;;19.00;99.90;;;;;;5046126;28;20713;-73
2023/06/09 06:48:45;;;;;;;5.03;4.63;;;19.00;99.90;;;;;;5058394;28;20238;-73
2023/06/09 06:51:12;;;;;;;5.53;4.50;;;19.00;99.90;;;;;;5057531;28;20731;-73
2023/06/09 06:53:40;;;;;;;5.38;4.88;;;19.30;99.90;;;;;;5056655;28;20257;-73
2023/06/09 06:56:07;;;;;;;5.15;4.68;;;19.40;99.90;;;;;;5044983;28;20203;-73
2023/06/09 06:58:34;;;;;;;5.88;4.22;;;19.50;99.90;;;;;;5061254;28;20230;-73
2023/06/09 07:01:02;;;;;;;5.90;4.70;;;19.60;99.90;;;;;;5058261;28;20237;-73
2023/06/09 07:03:33;;;;;;;4.60;4.20;;;19.70;99.90;;;;;;5061836;28;20563;-73
2023/06/09 07:06:01;;;;;;;5.60;4.20;;;19.70;99.90;;;;;;5056608;28;20675;-72
2023/06/09 07:08:28;;;;;;;5.00;4.55;;;19.80;99.90;;;;;;5060268;28;20214;-73
2023/06/09 07:10:55;;;;;;;4.88;4.47;;;19.90;99.90;;;;;;5037705;28;20222;-72
2023/06/09 07:13:22;;;;;;;6.05;4.82;;;19.90;99.90;;;;;;5060518;28;20285;-72
2023/06/09 07:15:49;;;;;;;5.05;4.50;;;19.90;99.90;;;;;;5059530;28;20210;-73
2023/06/09 07:18:16;;;;;;;4.82;4.32;;;20.00;99.90;;;;;;5061403;28;20233;-73
2023/06/09 07:20:48;;;;;;;5.03;4.45;;;20.10;99.90;;;;;;5054737;28;20285;-73
2023/06/09 07:23:15;;;;;;;7.63;4.85;;;20.30;99.90;;;;;;5059846;28;20194;-73
2023/06/09 07:25:42;;;;;;;4.97;4.47;;;20.40;99.90;;;;;;5043291;28;20259;-73
2023/06/09 07:28:09;;;;;;;5.35;4.90;;;20.20;99.90;;;;;;5055815;28;20210;-73
2023/06/09 07:30:36;;;;;;;4.50;4.10;;;20.20;99.90;;;;;;5057064;28;20795;-72
2023/06/09 07:33:05;;;;;;;4.93;4.53;;;20.40;99.90;;;;;;5045017;28;20198;-73
2023/06/09 07:35:32;;;;;;;4.65;4.25;;;20.50;99.90;;;;;;5059292;28;20312;-73
2023/06/09 07:38:01;;;;;;;4.68;4.25;;;20.60;99.90;;;;;;5043617;28;20194;-72
2023/06/09 07:40:28;;;;;;;4.90;4.40;;;20.70;99.90;;;;;;5059218;28;20285;-73
2023/06/09 07:42:56;;;;;;;4.30;4.00;;;20.80;99.90;;;;;;5058162;28;20226;-73
2023/06/09 07:45:23;;;;;;;4.80;4.40;;;20.90;99.90;;;;;;5055308;28;20260;-73
2023/06/09 07:47:51;;;;;;;5.53;4.90;;;21.00;99.90;;;;;;5036273;28;20284;-73
2023/06/09 07:50:19;;;;;;;6.18;4.28;;;21.10;99.90;;;;;;5061366;28;21574;-73
2023/06/09 07:52:46;;;;;;;5.28;4.43;;;21.20;99.90;;;;;;5023152;28;20267;-73
2023/06/09 07:55:14;;;;;;;4.93;4.53;;;21.50;99.90;;;;;;5044016;28;20231;-73
2023/06/09 07:57:42;;;;;;;5.78;4.80;;;21.50;99.90;;;;;;5056412;28;20194;-74
2023/06/09 08:00:10;;;;;;;4.70;4.30;;;21.50;99.90;;;;;;5058116;28;20791;-74
2023/06/09 08:02:41;;;;;;;4.88;4.47;;;21.40;99.90;;;;;;5053324;28;20695;-73
2023/06/09 08:05:09;;;;;;;4.28;3.88;;;21.50;99.90;;;;;;5043490;28;20226;-72
2023/06/09 08:07:36;;;;;;;4.88;4.30;;;21.70;99.90;;;;;;5059353;28;20249;-73
2023/06/09 08:10:03;;;;;;;5.13;4.60;;;21.80;99.90;;;;;;5059201;28;20254;-73
2023/06/09 08:12:32;;;;;;;5.00;4.60;;;22.10;99.90;;;;;;5041739;28;20683;-73
2023/06/09 08:14:59;;;;;;;4.82;4.43;;;22.30;99.90;;;;;;5059599;28;20214;-73
2023/06/09 08:17:26;;;;;;;4.93;4.30;;;22.30;99.90;;;;;;5061396;28;20212;-74
2023/06/09 08:19:53;;;;;;;4.43;4.03;;;22.40;99.90;;;;;;5056118;28;20636;-73
2023/06/09 08:22:20;;;;;;;4.75;4.35;;;22.40;99.90;;;;;;5051396;28;20780;-73
2023/06/09 08:24:47;;;;;;;4.30;4.00;;;22.50;99.90;;;;;;5040218;28;20226;-74
2023/06/09 08:27:15;;;;;;;4.30;3.95;;;22.50;99.90;;;;;;5053954;28;20195;-74
2023/06/09 08:29:43;;;;;;;5.88;4.35;;;22.60;99.90;;;;;;5060191;28;20218;-73
2023/06/09 08:32:10;;;;;;;4.50;4.10;;;22.60;99.90;;;;;;5057837;28;20242;-73
2023/06/09 08:34:37;;;;;;;4.47;4.07;;;22.60;99.90;;;;;;5059287;28;20326;-73
2023/06/09 08:37:05;;;;;;;4.55;4.10;;;22.80;99.90;;;;;;5056671;28;20233;-73
2023/06/09 08:39:32;;;;;;;4.85;4.45;;;23.10;99.90;;;;;;5058407;28;20720;-72
2023/06/09 08:42:06;;;;;;;5.13;4.70;;;23.10;99.90;;;;;;5057604;28;20194;-73
2023/06/09 08:44:39;;;;;;;5.30;4.43;;;23.20;99.90;;;;;;5053918;28;20217;-72
2023/06/09 08:47:09;;;;;;;4.60;4.20;;;23.30;99.90;;;;;;5041062;28;20226;-72
2023/06/09 08:49:37;;;;;;;5.53;4.63;;;23.40;99.90;;;;;;5061981;28;20208;-73
2023/06/09 08:52:05;;;;;;;5.43;4.60;;;23.30;99.90;;;;;;5059464;28;20233;-73
2023/06/09 08:54:32;;;;;;;5.07;4.57;;;23.20;99.90;;;;;;5056298;28;20222;-74
2023/06/09 08:57:00;;;;;;;4.53;4.18;;;23.40;99.90;;;;;;5056907;28;20222;-73
2023/06/09 08:59:33;;;;;;;4.45;4.05;;;23.60;99.90;;;;;;5052959;28;20229;-73
2023/06/09 09:02:02;;;;;;;5.78;4.25;;;23.70;99.90;;;;;;5058365;28;20226;-74
2023/06/09 09:04:31;;;;;;;4.68;4.28;;;23.80;99.90;;;;;;5053489;28;20229;-75
2023/06/09 09:06:58;;;;;;;5.20;4.80;;;23.90;99.90;;;;;;5056227;28;20289;-73
2023/06/09 09:09:26;;;;;;;4.63;4.22;;;23.90;99.90;;;;;;5059665;28;20202;-73
2023/06/09 09:11:58;;;;;;;4.50;4.10;;;23.90;99.90;;;;;;5057966;28;20299;-71
2023/06/09 09:14:25;;;;;;;4.78;4.38;;;24.20;99.90;;;;;;5058064;28;20311;-71
2023/06/09 09:16:52;;;;;;;4.72;4.32;;;24.40;99.90;;;;;;5048327;28;20252;-71
2023/06/09 09:19:26;;;;;;;5.40;4.88;;;24.50;99.90;;;;;;5008320;28;20220;-72
2023/06/09 09:21:55;;;;;;;4.90;4.50;;;24.50;99.90;;;;;;5064124;28;20194;-72
2023/06/09 09:24:22;;;;;;;5.00;4.28;;;24.60;99.90;;;;;;5057407;28;20690;-72
2023/06/09 09:26:49;;;;;;;4.53;4.13;;;24.60;99.90;;;;;;5060001;28;20202;-72
2023/06/09 09:29:16;;;;;;;5.43;4.45;;;24.70;99.90;;;;;;5059172;28;20316;-72
2023/06/09 09:31:44;;;;;;;6.68;4.40;;;24.70;99.90;;;;;;5063477;28;20234;-72
2023/06/09 09:34:15;;;;;;;5.15;4.45;;;24.90;99.90;;;;;;5040430;28;20898;-72
2023/06/09 09:36:42;;;;;;;4.10;3.80;;;24.90;99.90;;;;;;5059937;28;20293;-72
2023/06/09 09:39:11;;;;;;;5.40;4.40;;;24.80;99.90;;;;;;5041007;28;20198;-71
2023/06/09 09:41:38;;;;;;;5.22;4.72;;;24.70;99.90;;;;;;5064222;28;20222;-71
2023/06/09 09:44:06;;;;;;;4.20;3.90;;;24.60;99.90;;;;;;5042457;28;20226;-72
2023/06/09 09:46:42;;;;;;;4.93;4.43;;;24.60;99.90;;;;;;5059706;28;20218;-73
2023/06/09 09:49:22;;;;;;;4.38;3.97;;;24.70;99.90;;;;;;5058845;28;20267;-72
2023/06/09 09:51:49;;;;;;;4.80;3.95;;;24.90;99.90;;;;;;5061030;28;20210;-72
2023/06/09 09:54:22;;;;;;;6.03;4.00;;;25.00;99.90;;;;;;5060841;28;20339;-72
2023/06/09 09:56:49;;;;;;;4.63;4.22;;;25.20;99.90;;;;;;5044989;28;20199;-72
2023/06/09 09:59:16;;;;;;;5.55;3.90;;;25.30;99.90;;;;;;5060714;28;20223;-72
2023/06/09 10:01:44;;;;;;;4.35;4.05;;;25.20;99.90;;;;;;5054852;28;20313;-72
2023/06/09 10:04:11;;;;;;;4.55;4.15;;;25.20;99.90;;;;;;5063031;28;20215;-72
2023/06/09 10:06:39;;;;;;;5.63;4.38;;;25.30;99.90;;;;;;5062680;28;20290;-72
2023/06/09 10:09:06;;;;;;;3.83;3.53;;;25.40;99.90;;;;;;5054283;28;20594;-72
2023/06/09 10:11:36;;;;;;;5.30;4.60;;;25.50;99.90;;;;;;5041819;28;20562;-72
2023/06/09 10:14:05;;;;;;;4.53;4.13;;;25.40;99.90;;;;;;5057767;28;20749;-73
2023/06/09 10:16:33;;;;;;;4.55;4.20;;;25.40;99.90;;;;;;5058009;28;20256;-72
2023/06/09 10:19:00;;;;;;;5.13;4.38;;;25.40;99.90;;;;;;5029154;28;20224;-72
2023/06/09 10:21:28;;;;;;;4.72;4.32;;;25.50;99.90;;;;;;5056927;28;20214;-72
2023/06/09 10:23:57;;;;;;;4.18;3.88;;;25.50;99.90;;;;;;5058600;28;20229;-72
2023/06/09 10:26:25;;;;;;;4.70;4.30;;;25.40;99.90;;;;;;5059418;28;20207;-73
2023/06/09 10:28:54;;;;;;;4.97;4.45;;;25.50;99.90;;;;;;5059463;28;20194;-72
2023/06/09 10:31:23;;;;;;;4.90;4.50;;;25.50;99.90;;;;;;5059456;28;20323;-71
2023/06/09 10:33:53;;;;;;;4.57;4.18;;;25.50;99.90;;;;;;5049322;28;20250;-72
2023/06/09 10:36:20;;;;;;;4.90;4.50;;;25.50;99.90;;;;;;5058887;28;20206;-71
2023/06/09 10:38:48;;;;;;;4.05;3.75;;;25.60;99.90;;;;;;5065628;28;20229;-71
2023/06/09 10:41:20;;;;;;;4.40;4.00;;;25.70;99.90;;;;;;5059516;28;20321;-72
2023/06/09 10:44:19;;;;;;;3.80;3.50;;;25.80;99.90;;;;;;5059115;28;20224;-71
2023/06/09 10:46:47;;;;;;;4.80;4.40;;;26.10;99.90;;;;;;5058151;28;20202;-71
2023/06/09 10:49:37;;;;;;;5.00;4.10;;;26.40;99.90;;;;;;5041270;28;20198;-72
2023/06/09 10:52:05;;;;;;;4.38;4.00;;;26.50;99.90;;;;;;5062594;28;20225;-72
2023/06/09 10:54:35;;;;;;;4.10;3.80;;;26.50;99.90;;;;;;5058024;28;20292;-73
2023/06/09 10:57:05;;;;;;;4.55;3.83;;;26.70;99.90;;;;;;5060420;28;20198;-72
2023/06/09 11:00:11;;;;;;;4.20;3.80;;;26.90;99.90;;;;;;5046035;28;20194;-73
2023/06/09 11:02:38;;;;;;;4.35;3.97;;;27.00;99.90;;;;;;5058655;28;20215;-72
2023/06/09 11:05:06;;;;;;;3.97;3.65;;;27.00;99.90;;;;;;5058734;28;20353;-72
2023/06/09 11:07:43;;;;;;;4.22;3.45;;;26.60;99.90;;;;;;5056235;28;20210;-72
2023/06/09 11:10:28;;;;;;;4.20;3.90;;;26.20;99.90;;;;;;5059095;28;20800;-72
2023/06/09 11:12:56;;;;;;;3.78;3.42;;;26.40;99.90;;;;;;5056443;28;20776;-72
2023/06/09 11:15:45;;;;;;;3.40;3.08;;;26.80;99.90;;;;;;5058632;28;20230;-72
2023/06/09 11:18:17;;;;;;;3.60;3.30;;;27.30;99.90;;;;;;5063899;28;20198;-73
2023/06/09 11:20:44;;;;;;;3.53;3.33;;;27.70;99.90;;;;;;5060923;28;20200;-73
2023/06/09 11:23:12;;;;;;;4.00;3.60;;;28.10;99.90;;;;;;5059785;28;20190;-73
2023/06/09 11:25:50;;;;;;;3.15;2.92;;;28.50;99.90;;;;;;5058497;28;20203;-74
2023/06/09 11:28:20;;;;;;;3.15;2.95;;;28.90;99.90;;;;;;5057323;28;20893;-74
2023/06/09 11:31:17;;;;;;;4.40;3.30;;;29.40;99.90;;;;;;5059520;28;20334;-73
2023/06/09 11:33:49;;;;;;;3.60;3.30;;;29.60;99.90;;;;;;5060345;28;20232;-74
2023/06/09 11:36:18;;;;;;;2.95;2.75;;;29.50;99.90;;;;;;5053569;28;20210;-76
2023/06/09 11:38:46;;;;;;;3.88;2.97;;;29.20;99.90;;;;;;5042504;28;20198;-73
2023/06/09 11:41:17;;;;;;;3.45;2.90;;;28.90;99.90;;;;;;5043486;28;20194;-74
2023/06/09 11:43:55;;;;;;;3.60;3.30;;;28.60;99.90;;;;;;5039222;28;20304;-74
2023/06/09 11:46:24;;;;;;;3.05;2.80;;;28.60;99.90;;;;;;5054716;28;20238;-74
2023/06/09 11:49:05;;;;;;;3.35;3.15;;;28.70;99.90;;;;;;5061212;28;20311;-75
2023/06/09 11:51:59;;;;;;;3.03;2.83;;;28.60;99.90;;;;;;5056948;28;20750;-74
2023/06/09 11:54:46;;;;;;;3.38;3.08;;;28.50;99.90;;;;;;5054796;28;20222;-74
2023/06/09 11:57:15;;;;;;;3.13;2.92;;;28.40;99.90;;;;;;5058599;28;20268;-74
2023/06/09 11:59:43;;;;;;;3.88;2.75;;;28.10;99.90;;;;;;5043717;28;20203;-74
2023/06/09 12:02:13;;;;;;;3.40;3.10;;;28.00;99.90;;;;;;5059169;28;20232;-74
2023/06/09 12:04:42;;;;;;;3.63;3.10;;;27.90;99.90;;;;;;5061156;28;20268;-74
2023/06/09 12:07:13;;;;;;;3.25;3.00;;;28.00;99.90;;;;;;5042725;28;20214;-75
2023/06/09 12:09:40;;;;;;;3.97;2.85;;;28.20;99.90;;;;;;5060524;28;20202;-74
2023/06/09 12:12:08;;;;;;;3.75;3.10;;;28.40;99.90;;;;;;5057150;28;20260;-75
2023/06/09 12:14:37;;;;;;;3.78;3.20;;;28.50;99.90;;;;;;5055188;28;20881;-75
2023/06/09 12:17:06;;;;;;;2.92;2.72;;;28.50;99.90;;;;;;5056177;28;20290;-74
2023/06/09 12:19:34;;;;;;;2.70;2.50;;;28.60;99.90;;;;;;5053108;28;20203;-76
2023/06/09 12:22:02;;;;;;;2.95;2.75;;;28.60;99.90;;;;;;5041636;28;20230;-76
2023/06/09 12:24:31;;;;;;;3.38;3.08;;;28.50;99.90;;;;;;5057134;28;20560;-76
2023/06/09 12:26:58;;;;;;;4.13;3.13;;;28.30;99.90;;;;;;5057383;28;20589;-75
2023/06/09 12:29:27;;;;;;;3.53;3.13;;;28.10;99.90;;;;;;5056162;28;20226;-75
2023/06/09 12:31:54;;;;;;;3.58;2.70;;;28.10;99.90;;;;;;5059396;28;20227;-73
2023/06/09 12:34:23;;;;;;;3.13;2.88;;;28.00;99.90;;;;;;5053928;28;20229;-76
2023/06/09 12:36:52;;;;;;;2.92;2.72;;;28.20;99.90;;;;;;5054905;28;20302;-75
2023/06/09 12:39:21;;;;;;;3.10;2.90;;;28.40;99.90;;;;;;5057917;28;20309;-76
2023/06/09 12:41:48;;;;;;;4.22;3.30;;;28.60;99.90;;;;;;5058793;28;20289;-74
2023/06/09 12:44:23;;;;;;;3.67;3.13;;;28.60;99.90;;;;;;5054977;28;20665;-75
2023/06/09 12:46:55;;;;;;;6.55;3.30;;;28.40;99.90;;;;;;5054567;28;20209;-73
2023/06/09 12:49:30;;;;;;;3.50;3.20;;;28.20;99.90;;;;;;5037655;28;20293;-73
2023/06/09 12:52:02;;;;;;;3.65;3.35;;;28.10;99.90;;;;;;5058419;28;20297;-74
2023/06/09 12:54:29;;;;;;;4.13;3.42;;;28.10;99.90;;;;;;5057923;28;20227;-72
2023/06/09 12:56:57;;;;;;;5.57;3.10;;;28.10;99.90;;;;;;5060701;28;20301;-72